createdAt,value
2023-05-12T00:00:32.188Z,36.23
2023-05-12T00:01:32.205Z,36.24
2023-05-12T00:02:32.243Z,36.23
2023-05-12T00:03:32.452Z,36.23
2023-05-12T00:04:32.251Z,36.24
2023-05-12T00:05:32.228Z,36.26
2023-05-12T00:06:32.240Z,36.26
2023-05-12T00:07:32.196Z,36.25
2023-05-12T00:08:32.271Z,36.25
2023-05-12T00:09:32.190Z,36.24
2023-05-12T00:10:32.215Z,36.24
2023-05-12T00:11:32.187Z,36.27
2023-05-12T00:12:32.205Z,36.27
2023-05-12T00:13:32.258Z,36.26
2023-05-12T00:14:32.244Z,36.27
2023-05-12T00:15:32.289Z,36.26
2023-05-12T00:16:32.340Z,36.26
2023-05-12T00:17:32.337Z,36.27
2023-05-12T00:18:32.545Z,36.26
2023-05-12T00:19:32.327Z,36.28
2023-05-12T00:20:32.313Z,36.28
2023-05-12T00:21:32.347Z,36.27
2023-05-12T00:22:32.350Z,36.26
2023-05-12T00:23:32.345Z,36.30
2023-05-12T00:24:32.305Z,36.29
2023-05-12T00:25:32.320Z,36.28
2023-05-12T00:26:32.318Z,36.31
2023-05-12T00:27:32.310Z,36.30
2023-05-12T00:28:32.271Z,36.28
2023-05-12T00:29:32.286Z,36.31
2023-05-12T00:30:32.311Z,36.32
2023-05-12T00:31:32.325Z,36.29
2023-05-12T00:32:32.411Z,36.28
2023-05-12T00:33:32.266Z,36.29
2023-05-12T00:34:32.256Z,36.34
2023-05-12T00:35:32.273Z,36.31
2023-05-12T00:36:32.288Z,36.32
2023-05-12T00:37:32.261Z,36.31
2023-05-12T00:38:32.246Z,36.31
2023-05-12T00:39:32.216Z,36.32
2023-05-12T00:40:32.264Z,36.29
2023-05-12T00:41:32.228Z,36.29
2023-05-12T00:42:32.282Z,36.32
2023-05-12T00:43:32.283Z,36.32
2023-05-12T00:44:32.245Z,36.34
2023-05-12T00:45:32.284Z,36.33
2023-05-12T00:46:32.277Z,36.34
2023-05-12T00:47:32.341Z,36.35
2023-05-12T00:48:32.331Z,36.35
2023-05-12T00:49:32.257Z,36.31
2023-05-12T00:50:32.281Z,36.34
2023-05-12T00:51:32.248Z,36.35
2023-05-12T00:52:32.282Z,36.33
2023-05-12T00:53:41.369Z,36.34
2023-05-12T00:54:33.283Z,36.33
2023-05-12T00:55:32.255Z,36.36
2023-05-12T00:56:32.227Z,36.37
2023-05-12T00:57:32.277Z,36.36
2023-05-12T00:58:32.218Z,36.36
2023-05-12T00:59:32.216Z,36.39
2023-05-12T01:00:32.205Z,36.37
2023-05-12T01:01:32.250Z,36.39
2023-05-12T01:02:32.284Z,36.36
2023-05-12T01:03:32.247Z,36.36
2023-05-12T01:04:32.227Z,36.39
2023-05-12T01:05:32.183Z,36.37
2023-05-12T01:06:32.154Z,36.39
2023-05-12T01:07:32.209Z,36.39
2023-05-12T01:08:32.154Z,36.34
2023-05-12T01:09:32.167Z,36.41
2023-05-12T01:10:32.176Z,36.35
2023-05-12T01:11:32.157Z,36.37
2023-05-12T01:12:32.148Z,36.39
2023-05-12T01:13:32.139Z,36.39
2023-05-12T01:14:32.151Z,36.38
2023-05-12T01:15:32.092Z,36.41
2023-05-12T01:16:32.100Z,36.39
2023-05-12T01:17:32.246Z,36.40
2023-05-12T01:18:32.147Z,36.42
2023-05-12T01:19:32.074Z,36.45
2023-05-12T01:20:32.103Z,36.38
2023-05-12T01:21:32.051Z,36.41
2023-05-12T01:22:32.045Z,36.42
2023-05-12T01:23:32.103Z,36.41
2023-05-12T01:24:32.052Z,36.39
2023-05-12T01:25:32.099Z,36.39
2023-05-12T01:26:32.023Z,36.39
2023-05-12T01:27:32.019Z,36.41
2023-05-12T01:28:32.032Z,36.42
2023-05-12T01:29:32.044Z,36.44
2023-05-12T01:30:31.984Z,36.46
2023-05-12T01:31:32.047Z,36.40
2023-05-12T01:32:32.017Z,36.45
2023-05-12T01:33:31.978Z,36.42
2023-05-12T01:34:31.980Z,36.42
2023-05-12T01:35:31.961Z,36.44
2023-05-12T01:36:31.926Z,36.42
2023-05-12T01:37:31.947Z,36.44
2023-05-12T01:38:31.953Z,36.44
2023-05-12T01:39:31.965Z,36.42
2023-05-12T01:40:31.924Z,36.42
2023-05-12T01:41:31.919Z,36.45
2023-05-12T01:42:31.935Z,36.44
2023-05-12T01:43:31.916Z,36.43
2023-05-12T01:44:31.894Z,36.45
2023-05-12T01:45:31.876Z,36.47
2023-05-12T01:46:32.022Z,36.46
2023-05-12T01:47:31.925Z,36.46
2023-05-12T01:48:31.828Z,36.46
2023-05-12T01:49:31.893Z,36.47
2023-05-12T01:50:31.873Z,36.46
2023-05-12T01:51:31.854Z,36.46
2023-05-12T01:52:31.840Z,36.46
2023-05-12T01:53:31.837Z,36.49
2023-05-12T01:54:31.846Z,36.45
2023-05-12T01:55:31.815Z,36.48
2023-05-12T01:56:31.809Z,36.47
2023-05-12T01:57:31.791Z,36.50
2023-05-12T01:58:31.818Z,36.48
2023-05-12T01:59:31.859Z,36.48
2023-05-12T02:00:31.841Z,36.47
2023-05-12T02:01:31.924Z,36.44
2023-05-12T02:02:31.894Z,36.48
2023-05-12T02:03:31.995Z,36.49
2023-05-12T02:04:31.881Z,36.49
2023-05-12T02:05:31.765Z,36.46
2023-05-12T02:06:31.769Z,36.47
2023-05-12T02:07:31.757Z,36.47
2023-05-12T02:08:31.831Z,36.48
2023-05-12T02:09:31.766Z,36.48
2023-05-12T02:10:31.807Z,36.48
2023-05-12T02:11:31.916Z,36.47
2023-05-12T02:12:31.817Z,36.51
2023-05-12T02:13:31.789Z,36.52
2023-05-12T02:14:31.896Z,36.48
2023-05-12T02:15:31.782Z,36.51
2023-05-12T02:16:31.861Z,36.50
2023-05-12T02:17:31.814Z,36.49
2023-05-12T02:18:31.877Z,36.54
2023-05-12T02:19:31.808Z,36.53
2023-05-12T02:20:31.927Z,36.53
2023-05-12T02:21:31.824Z,36.48
2023-05-12T02:22:31.786Z,36.51
2023-05-12T02:23:31.864Z,36.52
2023-05-12T02:24:31.848Z,36.50
2023-05-12T02:25:31.822Z,36.51
2023-05-12T02:26:31.831Z,36.53
2023-05-12T02:27:31.789Z,36.54
2023-05-12T02:28:31.792Z,36.53
2023-05-12T02:29:31.824Z,36.52
2023-05-12T02:30:31.839Z,36.53
2023-05-12T02:31:31.840Z,36.53
2023-05-12T02:32:31.872Z,36.52
2023-05-12T02:33:31.822Z,36.52
2023-05-12T02:34:31.813Z,36.54
2023-05-12T02:35:31.815Z,36.54
2023-05-12T02:36:31.855Z,36.53
2023-05-12T02:37:31.848Z,36.52
2023-05-12T02:38:31.838Z,36.55
2023-05-12T02:39:31.842Z,36.52
2023-05-12T02:40:31.860Z,36.53
2023-05-12T02:41:31.892Z,36.55
2023-05-12T02:42:31.822Z,36.56
2023-05-12T02:43:31.822Z,36.56
2023-05-12T02:44:31.842Z,36.54
2023-05-12T02:45:31.848Z,36.57
2023-05-12T02:46:31.853Z,36.54
2023-05-12T02:47:31.926Z,36.58
2023-05-12T02:48:31.829Z,36.55
2023-05-12T02:49:31.866Z,36.59
2023-05-12T02:50:31.847Z,36.55
2023-05-12T02:51:31.900Z,36.54
2023-05-12T02:52:31.836Z,36.58
2023-05-12T02:53:31.837Z,36.54
2023-05-12T02:54:31.849Z,36.56
2023-05-12T02:55:31.859Z,36.59
2023-05-12T02:56:33.768Z,36.58
2023-05-12T02:57:31.890Z,36.56
2023-05-12T02:58:31.888Z,36.57
2023-05-12T02:59:31.838Z,36.59
2023-05-12T03:00:31.897Z,36.58
2023-05-12T03:01:31.919Z,36.57
2023-05-12T03:02:31.955Z,36.60
2023-05-12T03:03:32.035Z,36.57
2023-05-12T03:04:31.924Z,36.59
2023-05-12T03:05:31.934Z,36.56
2023-05-12T03:06:31.932Z,36.61
2023-05-12T03:07:31.934Z,36.55
2023-05-12T03:08:31.904Z,36.58
2023-05-12T03:09:31.905Z,36.58
2023-05-12T03:10:31.962Z,36.61
2023-05-12T03:11:31.912Z,36.58
2023-05-12T03:12:31.919Z,36.60
2023-05-12T03:13:31.982Z,36.58
2023-05-12T03:14:31.931Z,36.59
2023-05-12T03:15:32.408Z,36.61
2023-05-12T03:16:32.013Z,36.60
2023-05-12T03:17:32.015Z,36.58
2023-05-12T03:18:32.134Z,36.63
2023-05-12T03:19:31.945Z,36.60
2023-05-12T03:20:31.953Z,36.62
2023-05-12T03:21:31.952Z,36.61
2023-05-12T03:22:31.976Z,36.58
2023-05-12T03:23:31.980Z,36.61
2023-05-12T03:24:32.064Z,36.59
2023-05-12T03:25:32.034Z,36.59
2023-05-12T03:26:31.995Z,36.62
2023-05-12T03:27:32.077Z,36.62
2023-05-12T03:28:32.032Z,36.59
2023-05-12T03:29:32.096Z,36.61
2023-05-12T03:30:32.045Z,36.60
2023-05-12T03:31:32.171Z,36.62
2023-05-12T03:32:32.111Z,36.62
2023-05-12T03:33:32.130Z,36.58
2023-05-12T03:34:32.118Z,36.63
2023-05-12T03:35:32.085Z,36.61
2023-05-12T03:36:32.140Z,36.60
2023-05-12T03:37:32.061Z,36.59
2023-05-12T03:38:32.195Z,36.60
2023-05-12T03:39:32.116Z,36.61
2023-05-12T03:40:32.113Z,36.63
2023-05-12T03:41:32.124Z,36.61
2023-05-12T03:42:32.103Z,36.61
2023-05-12T03:43:32.107Z,36.63
2023-05-12T03:44:32.144Z,36.64
2023-05-12T03:45:32.103Z,36.66
2023-05-12T03:46:32.209Z,36.67
2023-05-12T03:47:32.239Z,36.66
2023-05-12T03:48:32.119Z,36.62
2023-05-12T03:49:32.202Z,36.64
2023-05-12T03:50:32.136Z,36.63
2023-05-12T03:51:32.117Z,36.62
2023-05-12T03:52:32.140Z,36.66
2023-05-12T03:53:32.153Z,36.61
2023-05-12T03:54:32.156Z,36.63
2023-05-12T03:55:32.131Z,36.63
2023-05-12T03:56:32.128Z,36.64
2023-05-12T03:57:32.149Z,36.66
2023-05-12T03:58:32.186Z,36.69
2023-05-12T03:59:32.142Z,36.64
2023-05-12T04:00:32.114Z,36.67
2023-05-12T04:01:32.155Z,36.67
2023-05-12T04:02:32.332Z,36.66
2023-05-12T04:03:32.272Z,36.62
2023-05-12T04:04:32.171Z,36.66
2023-05-12T04:05:32.186Z,36.64
2023-05-12T04:06:32.206Z,36.67
2023-05-12T04:07:32.170Z,36.67
2023-05-12T04:08:32.184Z,36.65
2023-05-12T04:09:32.185Z,36.67
2023-05-12T04:10:32.220Z,36.69
2023-05-12T04:11:32.219Z,36.68
2023-05-12T04:12:32.199Z,36.66
2023-05-12T04:13:32.197Z,36.65
2023-05-12T04:14:42.151Z,36.68
2023-05-12T04:15:33.216Z,36.68
2023-05-12T04:16:32.265Z,36.69
2023-05-12T04:17:32.248Z,36.69
2023-05-12T04:18:32.251Z,36.67
2023-05-12T04:19:32.234Z,36.64
2023-05-12T04:20:32.202Z,36.66
2023-05-12T04:21:32.261Z,36.63
2023-05-12T04:22:32.199Z,36.64
2023-05-12T04:23:32.197Z,36.63
2023-05-12T04:24:32.866Z,36.64
2023-05-12T04:25:32.164Z,36.62
2023-05-12T04:26:32.172Z,36.63
2023-05-12T04:27:32.171Z,36.63
2023-05-12T04:28:32.157Z,36.63
2023-05-12T04:29:32.139Z,36.62
2023-05-12T04:30:32.121Z,36.61
2023-05-12T04:31:32.154Z,36.61
2023-05-12T04:32:32.230Z,36.59
2023-05-12T04:33:32.130Z,36.57
2023-05-12T04:34:32.144Z,36.55
2023-05-12T04:35:32.141Z,36.54
2023-05-12T04:36:32.102Z,36.56
2023-05-12T04:37:32.080Z,36.56
2023-05-12T04:38:32.165Z,36.53
2023-05-12T04:39:32.111Z,36.55
2023-05-12T04:40:34.728Z,36.56
2023-05-12T04:41:32.066Z,36.54
2023-05-12T04:42:32.099Z,36.51
2023-05-12T04:44:32.200Z,36.55
2023-05-12T04:45:32.042Z,36.55
2023-05-12T04:46:32.096Z,36.54
2023-05-12T04:47:32.102Z,36.54
2023-05-12T04:48:32.021Z,36.53
2023-05-12T04:49:31.975Z,36.54
2023-05-12T04:50:32.004Z,36.52
2023-05-12T04:51:32.042Z,36.52
2023-05-12T04:52:31.994Z,36.53
2023-05-12T04:53:31.973Z,36.52
2023-05-12T04:54:32.006Z,36.51
2023-05-12T04:55:31.982Z,36.51
2023-05-12T04:56:31.964Z,36.50
2023-05-12T04:57:31.965Z,36.51
2023-05-12T04:58:31.989Z,36.49
2023-05-12T04:59:31.985Z,36.49
2023-05-12T05:00:31.912Z,36.49
2023-05-12T05:01:31.994Z,36.53
2023-05-12T05:02:32.041Z,36.52
2023-05-12T05:03:32.006Z,36.50
2023-05-12T05:04:31.912Z,36.51
2023-05-12T05:05:31.909Z,36.51
2023-05-12T05:06:31.886Z,36.48
2023-05-12T05:07:31.918Z,36.49
2023-05-12T05:08:31.877Z,36.51
2023-05-12T05:09:33.352Z,36.50
2023-05-12T05:10:32.020Z,36.49
2023-05-12T05:11:32.105Z,36.48
2023-05-12T05:12:32.099Z,36.47
2023-05-12T05:13:32.099Z,36.46
2023-05-12T05:14:32.103Z,36.47
2023-05-12T05:15:32.114Z,36.44
2023-05-12T05:16:32.132Z,36.42
2023-05-12T05:17:32.164Z,36.43
2023-05-12T05:18:32.186Z,36.42
2023-05-12T05:20:32.599Z,36.38
2023-05-12T05:21:32.150Z,36.40
2023-05-12T05:22:32.178Z,36.37
2023-05-12T05:23:32.099Z,36.37
2023-05-12T05:24:32.088Z,36.38
2023-05-12T05:25:32.084Z,36.38
2023-05-12T05:26:32.072Z,36.37
2023-05-12T05:27:32.082Z,36.35
2023-05-12T05:28:32.072Z,36.36
2023-05-12T05:29:32.050Z,36.32
2023-05-12T05:30:32.200Z,36.33
2023-05-12T05:31:32.087Z,36.31
2023-05-12T05:32:32.014Z,36.41
2023-05-12T05:33:31.994Z,36.40
2023-05-12T05:34:32.065Z,36.25
2023-05-12T05:35:31.998Z,36.18
2023-05-12T05:36:32.410Z,36.15
2023-05-12T05:37:32.014Z,36.27
2023-05-12T05:38:32.027Z,36.19
2023-05-12T05:39:32.086Z,35.57
2023-05-12T05:40:41.333Z,34.83
2023-05-12T05:41:32.989Z,34.91
2023-05-12T05:42:31.981Z,34.98
2023-05-12T05:43:31.951Z,34.86
2023-05-12T05:44:32.026Z,35.42
2023-05-12T05:45:32.934Z,35.72
2023-05-12T05:46:32.406Z,36.36
2023-05-12T05:47:32.494Z,36.45
2023-05-12T05:48:32.457Z,36.61
2023-05-12T05:49:31.921Z,36.90
2023-05-12T05:50:32.466Z,36.73
2023-05-12T05:51:31.878Z,36.65
2023-05-12T05:52:32.007Z,37.17
2023-05-12T05:53:31.869Z,37.31
2023-05-12T05:54:31.974Z,37.54
2023-05-12T05:55:31.868Z,37.27
2023-05-12T05:56:31.963Z,37.27
2023-05-12T05:57:32.492Z,37.50
2023-05-12T05:58:32.425Z,37.39
2023-05-12T05:59:31.962Z,37.20
2023-05-12T06:00:32.397Z,37.11
2023-05-12T06:01:31.997Z,37.17
2023-05-12T06:02:32.096Z,37.30
2023-05-12T06:03:32.090Z,37.16
2023-05-12T06:04:32.032Z,37.09
2023-05-12T06:05:31.975Z,37.07
2023-05-12T06:06:32.020Z,37.09
2023-05-12T06:07:32.143Z,37.11
2023-05-12T06:08:32.180Z,37.08
2023-05-12T06:09:32.175Z,37.12
2023-05-12T06:10:32.258Z,37.23
2023-05-12T06:11:32.341Z,37.28
2023-05-12T06:12:32.345Z,37.31
2023-05-12T06:13:32.420Z,37.34
2023-05-12T06:14:32.445Z,37.38
2023-05-12T06:15:32.551Z,37.43
2023-05-12T06:16:32.533Z,37.51
2023-05-12T06:17:32.882Z,37.48
2023-05-12T06:18:32.605Z,37.52
2023-05-12T06:19:32.649Z,37.58
2023-05-12T06:20:32.610Z,37.63
2023-05-12T06:21:32.743Z,37.68
2023-05-12T06:22:34.161Z,37.76
2023-05-12T06:23:32.680Z,37.79
2023-05-12T06:24:32.871Z,37.84
2023-05-12T06:25:32.686Z,37.91
2023-05-12T06:26:32.700Z,37.93
2023-05-12T06:27:32.750Z,38.02
2023-05-12T06:28:32.701Z,37.96
2023-05-12T06:29:32.673Z,38.08
2023-05-12T06:30:32.723Z,38.13
2023-05-12T06:31:32.751Z,38.13
2023-05-12T06:32:32.869Z,38.15
2023-05-12T06:33:32.726Z,38.27
2023-05-12T06:34:32.695Z,38.45
2023-05-12T06:35:32.719Z,38.45
2023-05-12T06:36:32.689Z,38.53
2023-05-12T06:37:32.738Z,38.52
2023-05-12T06:38:32.878Z,38.29
2023-05-12T06:39:32.696Z,38.14
2023-05-12T06:40:32.690Z,37.46
2023-05-12T06:41:32.689Z,36.96
2023-05-12T06:42:33.043Z,37.30
2023-05-12T06:43:33.007Z,37.01
2023-05-12T06:44:32.728Z,35.83
2023-05-12T06:45:32.810Z,35.96
2023-05-12T06:46:32.887Z,35.66
2023-05-12T06:47:32.924Z,35.67
2023-05-12T06:48:32.908Z,36.22
2023-05-12T06:49:34.278Z,35.78
2023-05-12T06:50:33.112Z,35.90
2023-05-12T06:51:33.124Z,35.73
2023-05-12T06:52:33.192Z,35.31
2023-05-12T06:53:33.253Z,35.66
2023-05-12T06:54:33.302Z,35.49
2023-05-12T06:55:33.303Z,35.49
2023-05-12T06:56:33.323Z,35.72
2023-05-12T06:57:33.301Z,35.34
2023-05-12T06:58:33.507Z,35.45
2023-05-12T06:59:33.525Z,35.30
2023-05-12T07:00:33.333Z,35.58
2023-05-12T07:01:33.409Z,35.52
2023-05-12T07:02:33.973Z,35.33
2023-05-12T07:03:33.537Z,35.25
2023-05-12T07:04:33.277Z,34.90
2023-05-12T07:05:33.556Z,34.85
2023-05-12T07:06:33.338Z,34.89
2023-05-12T07:07:33.346Z,34.71
2023-05-12T07:08:33.350Z,34.61
2023-05-12T07:09:33.356Z,35.01
2023-05-12T07:10:33.291Z,34.92
2023-05-12T07:11:33.430Z,34.97
2023-05-12T07:12:33.318Z,34.88
2023-05-12T07:13:33.320Z,35.23
2023-05-12T07:14:33.318Z,35.18
2023-05-12T07:15:33.523Z,34.85
2023-05-12T07:16:33.560Z,35.03
2023-05-12T07:17:33.394Z,34.91
2023-05-12T07:18:33.371Z,34.97
2023-05-12T07:19:33.365Z,34.79
2023-05-12T07:20:33.363Z,34.72
2023-05-12T07:21:33.488Z,34.86
2023-05-12T07:22:35.506Z,34.90
2023-05-12T07:23:33.380Z,34.60
2023-05-12T07:24:33.346Z,34.92
2023-05-12T07:25:33.402Z,34.98
2023-05-12T07:26:33.377Z,34.82
2023-05-12T07:27:33.371Z,34.74
2023-05-12T07:28:33.385Z,34.88
2023-05-12T07:29:34.972Z,34.75
2023-05-12T07:30:33.454Z,34.98
2023-05-12T07:31:33.546Z,35.11
2023-05-12T07:32:33.436Z,34.77
2023-05-12T07:33:33.469Z,34.57
2023-05-12T07:34:33.372Z,34.93
2023-05-12T07:35:33.351Z,34.58
2023-05-12T07:36:33.362Z,34.23
2023-05-12T07:37:33.355Z,34.37
2023-05-12T07:38:33.267Z,34.43
2023-05-12T07:39:33.292Z,34.96
2023-05-12T07:40:33.293Z,34.58
2023-05-12T07:41:34.491Z,34.61
2023-05-12T07:42:33.279Z,34.34
2023-05-12T07:43:33.276Z,34.31
2023-05-12T07:44:33.692Z,34.14
2023-05-12T07:45:33.290Z,34.22
2023-05-12T07:46:33.282Z,34.16
2023-05-12T07:47:33.339Z,34.11
2023-05-12T07:48:33.218Z,34.09
2023-05-12T07:49:33.478Z,34.42
2023-05-12T07:50:33.394Z,34.37
2023-05-12T07:51:33.262Z,34.07
2023-05-12T07:52:34.000Z,33.96
2023-05-12T07:53:33.420Z,33.79
2023-05-12T07:54:33.706Z,33.63
2023-05-12T07:55:33.615Z,33.65
2023-05-12T07:56:33.471Z,33.96
2023-05-12T07:57:33.474Z,33.86
2023-05-12T07:58:33.536Z,33.83
2023-05-12T07:59:33.609Z,33.83
2023-05-12T08:00:33.636Z,33.67
2023-05-12T08:01:33.712Z,34.03
2023-05-12T08:02:33.807Z,34.02
2023-05-12T08:03:34.058Z,33.56
2023-05-12T08:04:34.102Z,33.70
2023-05-12T08:05:33.883Z,33.79
2023-05-12T08:06:34.101Z,33.93
2023-05-12T08:07:33.958Z,33.72
2023-05-12T08:08:34.003Z,33.80
2023-05-12T08:09:34.129Z,33.85
2023-05-12T08:10:34.118Z,33.67
2023-05-12T08:11:34.122Z,33.90
2023-05-12T08:12:34.208Z,33.66
2023-05-12T08:13:34.252Z,33.88
2023-05-12T08:14:34.261Z,33.80
2023-05-12T08:15:34.334Z,33.73
2023-05-12T08:16:34.467Z,33.83
2023-05-12T08:17:34.660Z,33.54
2023-05-12T08:18:34.643Z,33.29
2023-05-12T08:19:34.452Z,33.68
2023-05-12T08:20:34.764Z,33.43
2023-05-12T08:21:35.972Z,33.62
2023-05-12T08:22:34.669Z,33.55
2023-05-12T08:23:34.622Z,33.64
2023-05-12T08:24:34.612Z,33.45
2023-05-12T08:25:35.526Z,33.33
2023-05-12T08:26:35.168Z,33.39
2023-05-12T08:27:34.863Z,33.11
2023-05-12T08:28:35.300Z,32.83
2023-05-12T08:29:34.968Z,31.99
2023-05-12T08:30:35.289Z,32.00
2023-05-12T08:31:35.298Z,31.86
2023-05-12T08:32:35.211Z,31.80
2023-05-12T08:33:35.083Z,31.68
2023-05-12T08:34:35.101Z,31.81
2023-05-12T08:35:35.055Z,32.10
2023-05-12T08:36:35.049Z,32.56
2023-05-12T08:37:35.208Z,32.44
2023-05-12T08:38:35.162Z,32.11
2023-05-12T08:39:35.198Z,32.07
2023-05-12T08:40:35.250Z,32.40
2023-05-12T08:41:35.385Z,32.90
2023-05-12T08:42:35.378Z,32.77
2023-05-12T08:43:35.425Z,32.25
2023-05-12T08:44:35.506Z,32.30
2023-05-12T08:45:35.586Z,32.50
2023-05-12T08:46:35.720Z,32.19
2023-05-12T08:47:36.055Z,32.48
2023-05-12T08:48:35.570Z,32.63
2023-05-12T08:49:36.075Z,32.42
2023-05-12T08:50:35.585Z,32.57
2023-05-12T08:51:35.947Z,32.76
2023-05-12T08:52:35.648Z,32.80
2023-05-12T08:53:36.665Z,32.74
2023-05-12T08:54:42.447Z,32.63
2023-05-12T08:55:36.672Z,32.70
2023-05-12T08:57:37.460Z,32.56
2023-05-12T08:58:41.056Z,32.52
2023-05-12T08:59:36.713Z,32.69
2023-05-12T09:00:36.019Z,32.19
2023-05-12T09:01:36.912Z,32.17
2023-05-12T09:02:51.369Z,32.14
2023-05-12T09:03:37.563Z,32.32
2023-05-12T09:04:35.704Z,32.17
2023-05-12T09:05:35.676Z,32.29
2023-05-12T09:06:35.643Z,32.33
2023-05-12T09:07:35.640Z,32.22
2023-05-12T09:08:35.662Z,32.29
2023-05-12T09:09:35.644Z,32.41
2023-05-12T09:10:35.968Z,32.37
2023-05-12T09:11:35.613Z,32.72
2023-05-12T09:12:35.618Z,32.62
2023-05-12T09:13:35.632Z,32.53
2023-05-12T09:14:35.569Z,32.63
2023-05-12T09:15:35.588Z,32.48
2023-05-12T09:16:35.632Z,32.81
2023-05-12T09:17:35.623Z,33.08
2023-05-12T09:18:35.667Z,33.11
2023-05-12T09:19:35.581Z,33.05
2023-05-12T09:20:35.649Z,32.91
2023-05-12T09:21:35.690Z,33.12
2023-05-12T09:22:35.749Z,32.96
2023-05-12T09:23:35.788Z,33.09
2023-05-12T09:24:35.833Z,33.45
2023-05-12T09:25:35.831Z,33.18
2023-05-12T09:26:35.864Z,33.26
2023-05-12T09:27:36.053Z,33.24
2023-05-12T09:28:35.943Z,33.40
2023-05-12T09:29:45.050Z,33.69
2023-05-12T09:30:37.037Z,34.00
2023-05-12T09:31:36.036Z,35.10
2023-05-12T09:32:36.392Z,35.26
2023-05-12T09:33:37.220Z,35.24
2023-05-12T09:34:36.113Z,35.15
2023-05-12T09:35:36.451Z,35.48
2023-05-12T09:36:35.891Z,35.86
2023-05-12T09:37:35.893Z,36.28
2023-05-12T09:38:35.905Z,35.74
2023-05-12T09:39:35.872Z,35.48
2023-05-12T09:40:35.853Z,35.69
2023-05-12T09:41:35.878Z,35.48
2023-05-12T09:42:35.842Z,35.79
2023-05-12T09:43:36.051Z,35.96
2023-05-12T09:44:35.845Z,35.74
2023-05-12T09:45:35.915Z,35.95
2023-05-12T09:46:35.862Z,36.05
2023-05-12T09:47:35.872Z,36.02
2023-05-12T09:48:35.931Z,35.80
2023-05-12T09:49:35.917Z,35.52
2023-05-12T09:50:46.556Z,35.30
2023-05-12T09:51:36.857Z,35.59
2023-05-12T09:52:35.833Z,35.26
2023-05-12T09:53:35.836Z,35.19
2023-05-12T09:54:35.872Z,34.55
2023-05-12T09:55:35.833Z,34.43
2023-05-12T09:56:37.472Z,34.73
2023-05-12T09:57:35.857Z,34.28
2023-05-12T09:58:35.853Z,34.98
2023-05-12T09:59:35.888Z,34.89
2023-05-12T10:00:58.544Z,34.48
2023-05-12T10:01:36.959Z,34.69
2023-05-12T10:02:36.001Z,34.76
2023-05-12T10:03:36.030Z,34.42
2023-05-12T10:04:35.953Z,34.32
2023-05-12T10:05:35.920Z,34.26
2023-05-12T10:06:35.877Z,34.01
2023-05-12T10:07:35.897Z,34.31
2023-05-12T10:08:35.905Z,34.06
2023-05-12T10:09:35.917Z,33.62
2023-05-12T10:10:35.891Z,33.82
2023-05-12T10:11:35.901Z,33.61
2023-05-12T10:12:35.894Z,33.58
2023-05-12T10:13:35.944Z,33.37
2023-05-12T10:14:35.981Z,33.01
2023-05-12T10:15:37.383Z,33.27
2023-05-12T10:16:36.090Z,33.07
2023-05-12T10:17:37.070Z,33.17
2023-05-12T10:18:36.265Z,32.73
2023-05-12T10:19:36.236Z,32.75
2023-05-12T10:20:36.257Z,32.80
2023-05-12T10:21:36.192Z,33.37
2023-05-12T10:22:36.254Z,33.35
2023-05-12T10:23:37.890Z,32.83
2023-05-12T10:24:36.312Z,33.09
2023-05-12T10:25:36.327Z,32.95
2023-05-12T10:26:36.379Z,32.89
2023-05-12T10:27:36.524Z,32.66
2023-05-12T10:28:36.444Z,32.47
2023-05-12T10:29:36.519Z,32.58
2023-05-12T10:30:36.506Z,32.49
2023-05-12T10:31:36.542Z,32.93
2023-05-12T10:32:36.553Z,33.18
2023-05-12T10:33:36.585Z,33.38
2023-05-12T10:34:36.615Z,33.61
2023-05-12T10:35:36.604Z,33.68
2023-05-12T10:36:36.552Z,33.85
2023-05-12T10:37:36.549Z,33.81
2023-05-12T10:38:36.570Z,33.16
2023-05-12T10:39:36.628Z,34.02
2023-05-12T10:40:36.571Z,33.96
2023-05-12T10:41:36.648Z,33.99
2023-05-12T10:42:36.685Z,34.10
2023-05-12T10:43:36.767Z,34.15
2023-05-12T10:44:36.878Z,33.98
2023-05-12T10:45:37.017Z,33.73
2023-05-12T10:46:36.964Z,33.56
2023-05-12T10:47:37.086Z,34.08
2023-05-12T10:48:37.011Z,34.12
2023-05-12T10:49:37.100Z,33.92
2023-05-12T10:50:37.186Z,33.79
2023-05-12T10:51:37.161Z,33.83
2023-05-12T10:52:37.230Z,33.82
2023-05-12T10:53:48.289Z,33.63
2023-05-12T10:54:38.250Z,33.79
2023-05-12T10:55:37.322Z,33.68
2023-05-12T10:56:37.518Z,33.46
2023-05-12T10:57:37.519Z,33.61
2023-05-12T10:58:37.688Z,33.29
2023-05-12T10:59:37.807Z,33.33
2023-05-12T11:00:37.780Z,33.28
2023-05-12T11:02:38.384Z,33.13
2023-05-12T11:03:38.301Z,33.23
2023-05-12T11:04:37.484Z,33.10
2023-05-12T11:05:37.780Z,33.26
2023-05-12T11:06:37.632Z,33.09
2023-05-12T11:07:37.524Z,32.97
2023-05-12T11:08:37.854Z,32.61
2023-05-12T11:09:40.715Z,33.21
2023-05-12T11:10:38.907Z,33.08
2023-05-12T11:12:37.412Z,32.77
2023-05-12T11:13:37.273Z,33.63
2023-05-12T11:14:37.278Z,33.74
2023-05-12T11:15:37.632Z,33.40
2023-05-12T11:16:37.409Z,33.74
2023-05-12T11:17:37.631Z,33.84
2023-05-12T11:18:37.448Z,33.76
2023-05-12T11:19:37.417Z,33.88
2023-05-12T11:20:37.573Z,33.99
2023-05-12T11:21:37.465Z,33.59
2023-05-12T11:22:37.477Z,33.42
2023-05-12T11:23:37.428Z,33.19
2023-05-12T11:24:37.425Z,33.10
2023-05-12T11:25:37.537Z,32.95
2023-05-12T11:26:37.458Z,32.65
2023-05-12T11:27:37.460Z,32.87
2023-05-12T11:28:37.474Z,32.75
2023-05-12T11:29:37.484Z,32.86
2023-05-12T11:30:37.497Z,32.84
2023-05-12T11:31:37.545Z,32.76
2023-05-12T11:32:37.590Z,32.81
2023-05-12T11:33:37.573Z,32.92
2023-05-12T11:34:37.611Z,32.86
2023-05-12T11:35:37.677Z,32.89
2023-05-12T11:36:37.727Z,32.88
2023-05-12T11:37:37.789Z,32.91
2023-05-12T11:38:37.895Z,32.86
2023-05-12T11:39:37.947Z,32.87
2023-05-12T11:40:37.974Z,32.85
2023-05-12T11:41:38.076Z,32.79
2023-05-12T11:42:38.125Z,32.83
2023-05-12T11:43:38.181Z,32.82
2023-05-12T11:44:38.253Z,32.81
2023-05-12T11:45:38.316Z,32.80
2023-05-12T11:46:38.358Z,32.80
2023-05-12T11:47:38.560Z,32.84
2023-05-12T11:48:38.459Z,32.88
2023-05-12T11:49:38.472Z,32.83
2023-05-12T11:50:38.532Z,32.83
2023-05-12T11:51:38.651Z,32.87
2023-05-12T11:52:38.674Z,32.85
2023-05-12T11:53:38.764Z,32.91
2023-05-12T11:54:38.825Z,32.85
2023-05-12T11:55:38.830Z,32.87
2023-05-12T11:56:38.905Z,32.89
2023-05-12T11:57:38.928Z,32.88
2023-05-12T11:58:38.999Z,32.87
2023-05-12T11:59:39.088Z,32.94
2023-05-12T12:00:39.132Z,32.91
2023-05-12T12:01:39.186Z,32.91
2023-05-12T12:02:39.463Z,32.94
2023-05-12T12:03:39.443Z,32.93
2023-05-12T12:04:39.377Z,32.93
2023-05-12T12:05:39.416Z,32.95
2023-05-12T12:06:39.464Z,32.93
2023-05-12T12:07:39.531Z,32.94
2023-05-12T12:08:39.592Z,33.00
2023-05-12T12:09:39.588Z,33.03
2023-05-12T12:10:39.696Z,33.14
2023-05-12T12:11:39.711Z,33.06
2023-05-12T12:12:39.782Z,32.99
2023-05-12T12:13:39.897Z,32.96
2023-05-12T12:14:39.879Z,32.99
2023-05-12T12:15:39.955Z,32.99
2023-05-12T12:16:40.207Z,32.97
2023-05-12T12:17:40.319Z,32.96
2023-05-12T12:18:40.165Z,33.01
2023-05-12T12:19:40.190Z,33.13
2023-05-12T12:20:40.333Z,33.04
2023-05-12T12:21:40.299Z,33.09
2023-05-12T12:22:40.407Z,33.09
2023-05-12T12:23:50.388Z,33.05
2023-05-12T12:24:41.398Z,33.02
2023-05-12T12:25:40.373Z,33.07
2023-05-12T12:26:40.339Z,33.15
2023-05-12T12:27:40.335Z,33.17
2023-05-12T12:28:40.338Z,33.25
2023-05-12T12:29:40.348Z,33.18
2023-05-12T12:30:40.315Z,33.31
2023-05-12T12:31:40.387Z,33.21
2023-05-12T12:32:40.328Z,33.25
2023-05-12T12:33:40.385Z,33.19
2023-05-12T12:34:40.407Z,33.06
2023-05-12T12:35:40.489Z,33.07
2023-05-12T12:36:40.537Z,33.06
2023-05-12T12:37:40.627Z,33.05
2023-05-12T12:38:40.598Z,33.02
2023-05-12T12:39:40.675Z,33.02
2023-05-12T12:40:40.728Z,32.97
2023-05-12T12:41:40.785Z,32.97
2023-05-12T12:42:40.851Z,32.96
2023-05-12T12:43:40.852Z,32.93
2023-05-12T12:44:40.924Z,32.92
2023-05-12T12:45:40.928Z,32.90
2023-05-12T12:46:41.092Z,32.91
2023-05-12T12:47:41.112Z,32.87
2023-05-12T12:48:41.085Z,32.89
2023-05-12T12:49:41.095Z,32.90
2023-05-12T12:50:41.137Z,32.91
2023-05-12T12:51:46.325Z,32.90
2023-05-12T12:52:42.173Z,32.93
2023-05-12T12:53:41.187Z,32.91
2023-05-12T12:54:41.178Z,32.94
2023-05-12T12:55:41.194Z,32.95
2023-05-12T12:56:41.146Z,32.94
2023-05-12T12:57:41.154Z,32.99